createdAt,value
2019-01-20T00:00:29.733Z,96.73
2019-01-20T00:01:29.698Z,96.82
2019-01-20T00:02:29.819Z,97.01
2019-01-20T00:03:29.637Z,96.91
2019-01-20T00:04:29.622Z,97.29
2019-01-20T00:05:29.635Z,98.14
2019-01-20T00:06:29.550Z,97.86
2019-01-20T00:07:29.519Z,98.14
2019-01-20T00:08:29.495Z,98.05
2019-01-20T00:09:29.467Z,97.96
2019-01-20T00:10:29.434Z,98.24
2019-01-20T00:11:29.406Z,98.14
2019-01-20T00:12:29.367Z,98.14
2019-01-20T00:13:29.343Z,97.96
2019-01-20T00:14:29.310Z,98.43
2019-01-20T00:15:29.297Z,97.67
2019-01-20T00:16:29.256Z,98.05
2019-01-20T00:17:29.221Z,97.67
2019-01-20T00:18:29.409Z,97.10
2019-01-20T00:19:29.174Z,97.67
2019-01-20T00:20:29.135Z,97.96
2019-01-20T00:21:29.113Z,98.24
2019-01-20T00:22:29.069Z,98.33
2019-01-20T00:23:29.038Z,98.43
2019-01-20T00:24:29.014Z,98.24
2019-01-20T00:25:28.981Z,98.05
2019-01-20T00:26:28.950Z,99.08
2019-01-20T00:27:28.922Z,98.80
2019-01-20T00:28:28.898Z,99.56
2019-01-20T00:29:28.866Z,99.32
2019-01-20T00:30:28.829Z,99.65
2019-01-20T00:31:28.802Z,99.60
2019-01-20T00:32:28.770Z,99.18
2019-01-20T00:33:28.749Z,99.27
2019-01-20T00:34:28.715Z,98.80
2019-01-20T00:35:28.681Z,98.43
2019-01-20T00:36:28.651Z,98.52
2019-01-20T00:37:28.621Z,99.04
2019-01-20T00:38:28.597Z,99.75
2019-01-20T00:39:28.565Z,99.32
2019-01-20T00:40:28.534Z,99.94
2019-01-20T00:41:28.500Z,99.94
2019-01-20T00:42:28.474Z,99.84
2019-01-20T00:43:28.438Z,99.37
2019-01-20T00:44:28.409Z,99.56
2019-01-20T00:45:28.391Z,99.46
2019-01-20T00:46:28.350Z,99.46
2019-01-20T00:47:28.333Z,99.46
2019-01-20T00:48:28.289Z,99.18
2019-01-20T00:49:28.261Z,99.56
2019-01-20T00:50:28.230Z,99.56
2019-01-20T00:51:28.198Z,99.46
2019-01-20T00:52:28.176Z,99.75
2019-01-20T00:53:28.140Z,99.56
2019-01-20T00:54:28.110Z,99.84
2019-01-20T00:55:28.083Z,99.99
2019-01-20T00:56:28.100Z,99.99
2019-01-20T00:57:28.021Z,99.99
2019-01-20T00:58:27.990Z,99.99
2019-01-20T00:59:27.958Z,99.99
2019-01-20T01:00:27.929Z,99.99
2019-01-20T01:01:27.945Z,99.99
2019-01-20T01:02:27.879Z,99.99
2019-01-20T01:03:27.845Z,99.99
2019-01-20T01:04:27.833Z,99.99
2019-01-20T01:05:27.778Z,99.99
2019-01-20T01:06:27.751Z,99.99
2019-01-20T01:07:27.735Z,99.99
2019-01-20T01:08:27.691Z,99.99
2019-01-20T01:09:27.662Z,99.99
2019-01-20T01:10:27.628Z,99.99
2019-01-20T01:11:31.516Z,99.98
2019-01-20T01:12:27.577Z,99.99
2019-01-20T01:13:27.539Z,99.99
2019-01-20T01:14:27.510Z,99.99
2019-01-20T01:15:27.478Z,99.99
2019-01-20T01:16:27.451Z,99.99
2019-01-20T01:17:27.422Z,99.99
2019-01-20T01:18:27.387Z,99.99
2019-01-20T01:19:27.357Z,99.99
2019-01-20T01:20:27.328Z,99.99
2019-01-20T01:21:27.298Z,99.99
2019-01-20T01:22:27.265Z,99.99
2019-01-20T01:23:27.245Z,99.99
2019-01-20T01:24:27.207Z,99.99
2019-01-20T01:25:27.182Z,99.99
2019-01-20T01:26:27.156Z,99.99
2019-01-20T01:27:27.118Z,99.99
2019-01-20T01:28:27.087Z,99.99
2019-01-20T01:29:27.058Z,99.99
2019-01-20T01:30:27.027Z,99.99
2019-01-20T01:31:26.997Z,99.99
2019-01-20T01:32:26.967Z,99.99
2019-01-20T01:33:26.937Z,99.99
2019-01-20T01:34:26.907Z,99.99
2019-01-20T01:35:26.876Z,99.99
2019-01-20T01:36:26.851Z,99.99
2019-01-20T01:37:26.817Z,99.99
2019-01-20T01:38:26.785Z,99.99
2019-01-20T01:39:26.756Z,99.99
2019-01-20T01:40:26.725Z,99.99
2019-01-20T01:41:26.712Z,99.99
2019-01-20T01:42:26.663Z,99.99
2019-01-20T01:43:26.642Z,99.99
2019-01-20T01:44:26.654Z,99.99
2019-01-20T01:45:26.574Z,99.99
2019-01-20T01:46:26.545Z,99.99
2019-01-20T01:47:26.573Z,99.99
2019-01-20T01:48:26.501Z,99.99
2019-01-20T01:49:26.458Z,99.99
2019-01-20T01:50:26.433Z,99.99
2019-01-20T01:51:26.397Z,99.99
2019-01-20T01:52:26.365Z,99.99
2019-01-20T01:53:26.346Z,99.99
2019-01-20T01:54:26.303Z,99.99
2019-01-20T01:55:26.273Z,99.99
2019-01-20T01:56:26.258Z,99.99
2019-01-20T01:57:26.223Z,99.99
2019-01-20T01:58:26.193Z,99.99
2019-01-20T01:59:26.154Z,99.99
2019-01-20T02:00:26.124Z,99.99
2019-01-20T02:01:26.091Z,99.99
2019-01-20T02:02:26.064Z,99.99
2019-01-20T02:03:26.032Z,99.99
2019-01-20T02:04:26.007Z,99.99
2019-01-20T02:05:25.972Z,99.99
2019-01-20T02:06:25.941Z,99.99
2019-01-20T02:07:25.912Z,99.99
2019-01-20T02:08:25.881Z,99.99
2019-01-20T02:09:25.852Z,99.99
2019-01-20T02:10:25.824Z,99.99
2019-01-20T02:11:25.797Z,99.99
2019-01-20T02:12:25.758Z,99.99
2019-01-20T02:13:25.728Z,99.99
2019-01-20T02:14:25.699Z,99.99
2019-01-20T02:15:25.667Z,99.99
2019-01-20T02:16:25.638Z,99.99
2019-01-20T02:17:25.608Z,99.99
2019-01-20T02:18:25.585Z,99.99
2019-01-20T02:19:25.547Z,99.99
2019-01-20T02:20:25.518Z,99.99
2019-01-20T02:21:25.494Z,99.99
2019-01-20T02:22:25.455Z,99.99
2019-01-20T02:23:25.425Z,99.99
2019-01-20T02:24:25.404Z,99.99
2019-01-20T02:25:25.370Z,99.99
2019-01-20T02:26:25.342Z,99.99
2019-01-20T02:27:25.305Z,99.99
2019-01-20T02:28:25.274Z,99.99
2019-01-20T02:29:25.245Z,99.99
2019-01-20T02:30:25.214Z,99.99
2019-01-20T02:31:25.185Z,99.99
2019-01-20T02:32:25.155Z,99.99
2019-01-20T02:33:25.123Z,99.99
2019-01-20T02:34:25.091Z,99.99
2019-01-20T02:35:25.161Z,99.99
2019-01-20T02:36:25.034Z,99.99
2019-01-20T02:37:25.003Z,99.99
2019-01-20T02:38:24.973Z,99.99
2019-01-20T02:39:24.946Z,99.99
2019-01-20T02:40:24.912Z,99.99
2019-01-20T02:41:24.879Z,99.99
2019-01-20T02:42:24.849Z,99.99
2019-01-20T02:43:24.818Z,99.99
2019-01-20T02:44:24.789Z,99.99
2019-01-20T02:45:24.760Z,99.99
2019-01-20T02:46:24.729Z,99.99
2019-01-20T02:47:24.705Z,99.99
2019-01-20T02:48:24.668Z,99.99
2019-01-20T02:49:24.655Z,99.99
2019-01-20T02:50:24.624Z,99.99
2019-01-20T02:51:24.580Z,99.99
2019-01-20T02:52:24.547Z,99.99
2019-01-20T02:53:24.524Z,99.99
2019-01-20T02:54:24.485Z,99.99
2019-01-20T02:55:24.453Z,99.99
2019-01-20T02:56:24.431Z,99.99
2019-01-20T02:57:24.394Z,99.99
2019-01-20T02:58:24.363Z,99.99
2019-01-20T02:59:24.331Z,99.99
2019-01-20T03:00:24.304Z,99.99
2019-01-20T03:01:24.272Z,99.99
2019-01-20T03:02:24.242Z,99.99
2019-01-20T03:03:24.217Z,99.99
2019-01-20T03:04:25.652Z,99.99
2019-01-20T03:05:24.150Z,99.99
2019-01-20T03:06:24.117Z,99.99
2019-01-20T03:07:24.089Z,99.99
2019-01-20T03:08:24.060Z,99.99
2019-01-20T03:09:24.028Z,99.99
2019-01-20T03:10:24.005Z,99.99
2019-01-20T03:11:23.967Z,99.99
2019-01-20T03:12:23.937Z,99.99
2019-01-20T03:13:23.917Z,99.99
2019-01-20T03:14:23.897Z,99.99
2019-01-20T03:15:23.857Z,99.99
2019-01-20T03:16:23.816Z,99.99
2019-01-20T03:17:23.932Z,99.99
2019-01-20T03:18:23.752Z,99.99
2019-01-20T03:19:23.722Z,99.99
2019-01-20T03:20:23.689Z,99.99
2019-01-20T03:21:23.659Z,99.99
2019-01-20T03:22:23.637Z,99.99
2019-01-20T03:23:23.602Z,99.99
2019-01-20T03:24:23.568Z,99.99
2019-01-20T03:25:23.538Z,99.99
2019-01-20T03:26:23.512Z,99.99
2019-01-20T03:27:23.476Z,99.99
2019-01-20T03:28:23.448Z,99.99
2019-01-20T03:29:23.417Z,99.99
2019-01-20T03:30:23.384Z,99.99
2019-01-20T03:31:23.355Z,99.99
2019-01-20T03:32:23.339Z,99.99
2019-01-20T03:33:23.296Z,99.99
2019-01-20T03:34:23.271Z,99.99
2019-01-20T03:35:23.232Z,99.99
2019-01-20T03:36:23.209Z,99.99
2019-01-20T03:37:23.270Z,99.99
2019-01-20T03:38:23.137Z,99.99
2019-01-20T03:39:23.109Z,99.99
2019-01-20T03:40:23.076Z,99.99
2019-01-20T03:41:23.047Z,99.99
2019-01-20T03:42:23.016Z,99.99
2019-01-20T03:43:22.985Z,99.99
2019-01-20T03:44:22.953Z,99.99
2019-01-20T03:45:22.929Z,99.99
2019-01-20T03:46:22.903Z,99.99
2019-01-20T03:47:22.864Z,99.99
2019-01-20T03:48:22.841Z,99.99
2019-01-20T03:49:22.805Z,99.99
2019-01-20T03:50:22.787Z,99.99
2019-01-20T03:51:22.742Z,99.99
2019-01-20T03:52:22.712Z,99.99
2019-01-20T03:53:22.688Z,99.99
2019-01-20T03:54:22.650Z,99.99
2019-01-20T03:55:22.622Z,99.99
2019-01-20T03:56:22.586Z,99.99
2019-01-20T03:57:22.558Z,99.99
2019-01-20T03:58:22.532Z,99.99
2019-01-20T03:59:22.499Z,99.99
2019-01-20T04:00:22.465Z,99.99
2019-01-20T04:01:22.440Z,99.99
2019-01-20T04:02:22.411Z,99.99
2019-01-20T04:03:22.374Z,99.99
2019-01-20T04:04:22.341Z,99.99
2019-01-20T04:05:22.315Z,99.99
2019-01-20T04:06:22.279Z,99.99
2019-01-20T04:07:22.251Z,99.99
2019-01-20T04:08:22.320Z,99.99
2019-01-20T04:09:22.191Z,99.99
2019-01-20T04:10:22.157Z,99.99
2019-01-20T04:11:22.127Z,99.99
2019-01-20T04:12:22.105Z,99.99
2019-01-20T04:13:22.065Z,99.99
2019-01-20T04:14:22.033Z,99.99
2019-01-20T04:15:22.003Z,99.99
2019-01-20T04:16:21.974Z,99.99
2019-01-20T04:17:21.942Z,99.99
2019-01-20T04:18:21.911Z,99.99
2019-01-20T04:19:21.894Z,99.99
2019-01-20T04:20:21.851Z,99.99
2019-01-20T04:21:21.826Z,99.99
2019-01-20T04:22:21.789Z,99.99
2019-01-20T04:23:21.762Z,99.99
2019-01-20T04:24:21.727Z,99.99
2019-01-20T04:25:21.696Z,99.99
2019-01-20T04:26:21.673Z,99.99
2019-01-20T04:27:21.636Z,99.99
2019-01-20T04:28:21.604Z,99.99
2019-01-20T04:29:21.577Z,99.99
2019-01-20T04:30:21.545Z,99.99
2019-01-20T04:31:21.510Z,99.99
2019-01-20T04:32:21.481Z,99.99
2019-01-20T04:33:21.452Z,99.99
2019-01-20T04:34:21.417Z,99.99
2019-01-20T04:35:21.417Z,99.99
2019-01-20T04:36:21.356Z,99.99
2019-01-20T04:37:21.326Z,99.99
2019-01-20T04:38:21.297Z,99.99
2019-01-20T04:39:21.264Z,99.99
2019-01-20T04:40:21.234Z,99.99
2019-01-20T04:41:21.219Z,99.99
2019-01-20T04:42:28.786Z,99.99
2019-01-20T04:43:21.143Z,99.99
2019-01-20T04:44:21.112Z,99.99
2019-01-20T04:45:21.093Z,99.99
2019-01-20T04:46:21.048Z,99.99
2019-01-20T04:47:21.019Z,99.99
2019-01-20T04:48:20.987Z,99.99
2019-01-20T04:49:20.965Z,99.99
2019-01-20T04:50:20.926Z,99.99
2019-01-20T04:51:20.911Z,99.99
2019-01-20T04:52:20.873Z,99.99
2019-01-20T04:53:20.837Z,99.99
2019-01-20T04:54:20.800Z,99.99
2019-01-20T04:55:20.771Z,99.99
2019-01-20T04:56:20.740Z,99.99
2019-01-20T04:57:20.707Z,99.99
2019-01-20T04:58:20.677Z,99.99
2019-01-20T04:59:20.645Z,99.99
2019-01-20T05:00:20.617Z,99.99
2019-01-20T05:01:20.591Z,99.99
2019-01-20T05:02:20.556Z,99.99
2019-01-20T05:03:20.524Z,99.99
2019-01-20T05:04:20.492Z,99.99
2019-01-20T05:05:20.461Z,99.99
2019-01-20T05:06:20.429Z,99.99
2019-01-20T05:07:20.397Z,99.99
2019-01-20T05:08:20.367Z,99.99
2019-01-20T05:09:20.336Z,99.99
2019-01-20T05:10:20.305Z,99.99
2019-01-20T05:11:20.292Z,99.99
2019-01-20T05:12:20.247Z,99.99
2019-01-20T05:13:20.224Z,99.99
2019-01-20T05:14:20.180Z,99.99
2019-01-20T05:15:20.150Z,99.99
2019-01-20T05:16:20.119Z,99.99
2019-01-20T05:17:20.087Z,99.99
2019-01-20T05:18:20.056Z,99.99
2019-01-20T05:19:20.025Z,99.99
2019-01-20T05:20:19.995Z,99.99
2019-01-20T05:21:19.964Z,99.99
2019-01-20T05:22:19.932Z,99.99
2019-01-20T05:23:19.901Z,99.99
2019-01-20T05:24:19.872Z,99.99
2019-01-20T05:25:19.841Z,99.99
2019-01-20T05:26:19.810Z,99.99
2019-01-20T05:27:19.779Z,99.99
2019-01-20T05:28:19.747Z,99.99
2019-01-20T05:29:19.717Z,99.99
2019-01-20T05:30:19.688Z,99.99
2019-01-20T05:31:19.654Z,99.99
2019-01-20T05:32:19.623Z,99.99
2019-01-20T05:33:19.604Z,99.99
2019-01-20T05:34:19.569Z,99.99
2019-01-20T05:35:19.529Z,99.99
2019-01-20T05:36:19.500Z,99.99
2019-01-20T05:37:19.468Z,99.99
2019-01-20T05:38:19.438Z,99.99
2019-01-20T05:39:19.405Z,99.99
2019-01-20T05:40:19.377Z,99.99
2019-01-20T05:41:19.346Z,99.99
2019-01-20T05:42:19.314Z,99.99
2019-01-20T05:43:19.283Z,99.99
2019-01-20T05:44:19.250Z,99.99
2019-01-20T05:45:19.222Z,99.99
2019-01-20T05:46:19.190Z,99.99
2019-01-20T05:47:19.159Z,99.99
2019-01-20T05:48:19.131Z,99.99
2019-01-20T05:49:19.097Z,99.99
2019-01-20T05:50:19.071Z,99.99
2019-01-20T05:51:19.034Z,99.99
2019-01-20T05:52:19.006Z,99.99
2019-01-20T05:53:18.973Z,99.99
2019-01-20T05:54:18.943Z,99.99
2019-01-20T05:55:18.909Z,99.99
2019-01-20T05:56:18.879Z,99.99
2019-01-20T05:57:18.848Z,99.99
2019-01-20T05:58:18.967Z,99.99
2019-01-20T05:59:18.786Z,99.99
2019-01-20T06:00:18.760Z,99.99
2019-01-20T06:01:18.724Z,99.99
2019-01-20T06:02:18.692Z,99.99
2019-01-20T06:03:18.660Z,99.99
2019-01-20T06:04:18.631Z,99.99
2019-01-20T06:05:18.602Z,99.99
2019-01-20T06:06:18.568Z,99.99
2019-01-20T06:07:18.537Z,99.99
2019-01-20T06:08:18.512Z,99.99
2019-01-20T06:09:18.477Z,99.99
2019-01-20T06:10:18.443Z,99.99
2019-01-20T06:11:18.414Z,99.99
2019-01-20T06:12:18.382Z,99.99
2019-01-20T06:13:18.351Z,99.99
2019-01-20T06:14:18.328Z,99.99
2019-01-20T06:15:18.288Z,99.99
2019-01-20T06:16:18.258Z,99.99
2019-01-20T06:17:18.227Z,99.99
2019-01-20T06:18:18.202Z,99.99
2019-01-20T06:19:18.166Z,99.99
2019-01-20T06:20:18.137Z,99.99
2019-01-20T06:21:18.103Z,99.99
2019-01-20T06:22:18.072Z,99.99
2019-01-20T06:23:18.042Z,99.99
2019-01-20T06:24:18.011Z,99.99
2019-01-20T06:25:17.980Z,99.99
2019-01-20T06:26:17.947Z,99.99
2019-01-20T06:27:17.918Z,99.99
2019-01-20T06:28:17.895Z,99.99
2019-01-20T06:29:17.857Z,99.99
2019-01-20T06:30:17.824Z,99.99
2019-01-20T06:31:17.793Z,99.99
2019-01-20T06:32:17.762Z,99.99
2019-01-20T06:33:17.730Z,99.99
2019-01-20T06:34:17.702Z,99.99
2019-01-20T06:35:17.669Z,99.99
2019-01-20T06:36:17.639Z,99.99
2019-01-20T06:37:17.609Z,99.99
2019-01-20T06:38:17.575Z,99.99
2019-01-20T06:39:17.547Z,99.99
2019-01-20T06:40:17.516Z,99.99
2019-01-20T06:41:17.483Z,99.99
2019-01-20T06:42:17.450Z,99.99
2019-01-20T06:43:17.426Z,99.99
2019-01-20T06:44:17.388Z,99.99
2019-01-20T06:45:17.357Z,99.99
2019-01-20T06:46:17.327Z,99.99
2019-01-20T06:47:17.295Z,99.99
2019-01-20T06:48:17.271Z,99.99
2019-01-20T06:49:17.232Z,99.99
2019-01-20T06:50:17.200Z,99.99
2019-01-20T06:51:17.171Z,99.99
2019-01-20T06:52:17.139Z,99.99
2019-01-20T06:53:17.107Z,99.99
2019-01-20T06:54:17.075Z,99.99
2019-01-20T06:55:17.104Z,99.99
2019-01-20T06:56:17.016Z,99.99
2019-01-20T06:57:16.982Z,99.99
2019-01-20T06:58:16.950Z,99.99
2019-01-20T06:59:16.928Z,99.99
2019-01-20T07:00:16.889Z,99.99
2019-01-20T07:01:16.859Z,99.99
2019-01-20T07:02:16.826Z,99.99
2019-01-20T07:03:16.803Z,99.99
2019-01-20T07:04:16.765Z,99.99
2019-01-20T07:05:16.733Z,99.99
2019-01-20T07:06:16.703Z,99.99
2019-01-20T07:07:16.675Z,99.99
2019-01-20T07:08:16.641Z,99.99
2019-01-20T07:09:16.610Z,99.99
2019-01-20T07:10:16.576Z,99.99
2019-01-20T07:11:16.545Z,99.99
2019-01-20T07:12:16.525Z,99.99
2019-01-20T07:13:16.483Z,99.99
2019-01-20T07:14:16.451Z,99.99
2019-01-20T07:15:16.420Z,99.99
2019-01-20T07:16:16.390Z,99.99
2019-01-20T07:17:16.360Z,99.99
2019-01-20T07:18:16.327Z,99.99
2019-01-20T07:19:16.303Z,99.99
2019-01-20T07:20:16.322Z,99.99
2019-01-20T07:21:16.235Z,99.99
2019-01-20T07:22:16.204Z,99.99
2019-01-20T07:23:16.170Z,99.99
2019-01-20T07:24:16.154Z,99.99
2019-01-20T07:25:16.116Z,99.99
2019-01-20T07:26:16.076Z,99.99
2019-01-20T07:27:16.044Z,99.99
2019-01-20T07:28:16.014Z,99.99
2019-01-20T07:29:15.983Z,99.99
2019-01-20T07:30:15.953Z,99.99
2019-01-20T07:31:16.021Z,99.99
2019-01-20T07:32:15.889Z,99.99
2019-01-20T07:33:15.859Z,99.99
2019-01-20T07:34:15.827Z,99.99
2019-01-20T07:35:15.794Z,99.99
2019-01-20T07:36:15.764Z,99.99
2019-01-20T07:37:15.786Z,99.99
2019-01-20T07:38:15.710Z,99.99
2019-01-20T07:39:15.673Z,99.99
2019-01-20T07:40:15.642Z,99.99
2019-01-20T07:41:15.616Z,99.99
2019-01-20T07:42:15.577Z,99.99
2019-01-20T07:43:16.933Z,99.99
2019-01-20T07:44:15.516Z,99.99
2019-01-20T07:45:15.485Z,99.99
2019-01-20T07:46:15.451Z,99.99
2019-01-20T07:47:15.430Z,99.99
2019-01-20T07:48:15.402Z,99.99
2019-01-20T07:49:15.358Z,99.99
2019-01-20T07:50:15.327Z,99.99
2019-01-20T07:51:15.303Z,99.99
2019-01-20T07:52:15.265Z,99.99
2019-01-20T07:53:15.234Z,99.99
2019-01-20T07:54:15.200Z,99.99
2019-01-20T07:55:15.178Z,99.99
2019-01-20T07:56:15.139Z,99.99
2019-01-20T07:57:15.112Z,99.99
2019-01-20T07:58:15.078Z,99.99
2019-01-20T07:59:15.045Z,99.99
2019-01-20T08:00:15.013Z,99.99
2019-01-20T08:01:14.982Z,99.99
2019-01-20T08:02:14.953Z,99.99
2019-01-20T08:03:14.930Z,99.99
2019-01-20T08:04:14.903Z,99.99
2019-01-20T08:05:14.960Z,99.99
2019-01-20T08:06:14.826Z,99.99
2019-01-20T08:07:14.796Z,99.99
2019-01-20T08:08:14.764Z,99.99
2019-01-20T08:09:14.732Z,99.99
2019-01-20T08:10:14.701Z,99.99
2019-01-20T08:11:14.670Z,99.99
2019-01-20T08:12:14.640Z,99.99
2019-01-20T08:13:14.609Z,99.99
2019-01-20T08:14:14.576Z,99.99
2019-01-20T08:15:14.548Z,99.99
2019-01-20T08:16:14.541Z,99.99
2019-01-20T08:17:14.493Z,99.99
2019-01-20T08:18:14.453Z,99.99
2019-01-20T08:19:14.422Z,99.99
2019-01-20T08:20:14.392Z,99.99
2019-01-20T08:21:14.369Z,99.99
2019-01-20T08:22:14.329Z,99.99
2019-01-20T08:23:14.317Z,99.99
2019-01-20T08:24:14.282Z,99.99
2019-01-20T08:25:14.294Z,99.99
2019-01-20T08:26:14.215Z,99.99
2019-01-20T08:27:14.178Z,99.99
2019-01-20T08:28:14.197Z,99.99
2019-01-20T08:29:14.113Z,99.99
2019-01-20T08:30:14.085Z,99.99
2019-01-20T08:31:14.061Z,99.99
2019-01-20T08:32:14.022Z,99.99
2019-01-20T08:33:14.008Z,99.99
2019-01-20T08:34:13.965Z,99.99
2019-01-20T08:35:13.929Z,99.99
2019-01-20T08:36:13.896Z,99.99
2019-01-20T08:37:13.866Z,99.99
2019-01-20T08:38:13.835Z,99.99
2019-01-20T08:39:13.817Z,99.99
2019-01-20T08:40:13.775Z,99.99
2019-01-20T08:41:13.743Z,99.99
2019-01-20T08:42:13.711Z,99.99
2019-01-20T08:43:13.679Z,99.99
2019-01-20T08:44:13.652Z,99.99
2019-01-20T08:45:13.627Z,99.99
2019-01-20T08:46:13.587Z,99.99
2019-01-20T08:47:13.556Z,99.99
2019-01-20T08:48:13.534Z,99.99
2019-01-20T08:49:13.495Z,99.99
2019-01-20T08:50:13.464Z,99.99
2019-01-20T08:51:13.442Z,99.99
2019-01-20T08:52:13.404Z,99.99
2019-01-20T08:53:13.382Z,99.99
2019-01-20T08:54:13.343Z,99.99
2019-01-20T08:55:13.310Z,99.99
2019-01-20T08:56:13.286Z,99.99
2019-01-20T08:57:13.249Z,99.99
2019-01-20T08:58:13.221Z,99.99
2019-01-20T08:59:13.197Z,99.99
2019-01-20T09:00:13.164Z,99.99
2019-01-20T09:01:13.134Z,99.99
2019-01-20T09:02:13.096Z,99.99
2019-01-20T09:03:13.066Z,99.99
2019-01-20T09:04:13.035Z,99.99
2019-01-20T09:05:13.006Z,99.99
2019-01-20T09:06:12.980Z,99.99
2019-01-20T09:07:12.950Z,99.99
2019-01-20T09:08:12.928Z,99.99
2019-01-20T09:09:12.891Z,99.99
2019-01-20T09:10:12.862Z,99.99
2019-01-20T09:11:12.820Z,99.99
2019-01-20T09:12:12.797Z,99.99
2019-01-20T09:13:12.760Z,99.99
2019-01-20T09:14:12.729Z,99.99
2019-01-20T09:15:12.702Z,99.99
2019-01-20T09:16:12.669Z,99.99
2019-01-20T09:17:12.639Z,99.99
2019-01-20T09:18:12.607Z,99.99
2019-01-20T09:19:12.577Z,99.99
2019-01-20T09:20:12.556Z,99.99
2019-01-20T09:21:12.522Z,99.99
2019-01-20T09:22:12.486Z,99.99
2019-01-20T09:23:12.459Z,99.99
2019-01-20T09:24:12.424Z,99.99
2019-01-20T09:25:12.399Z,99.99
2019-01-20T09:26:12.362Z,99.99
2019-01-20T09:27:12.331Z,99.99
2019-01-20T09:28:12.310Z,99.99
2019-01-20T09:29:12.271Z,99.99
2019-01-20T09:30:12.240Z,99.99
2019-01-20T09:31:12.211Z,99.99
2019-01-20T09:32:12.193Z,99.99
2019-01-20T09:33:12.150Z,99.99
2019-01-20T09:34:12.119Z,99.99
2019-01-20T09:35:12.087Z,99.99
2019-01-20T09:36:12.064Z,99.99
2019-01-20T09:37:12.033Z,99.99
2019-01-20T09:38:12.002Z,99.99
2019-01-20T09:39:11.977Z,99.99
2019-01-20T09:40:11.945Z,99.99
2019-01-20T09:41:11.923Z,99.99
2019-01-20T09:42:11.886Z,99.84
2019-01-20T09:43:11.844Z,98.71
2019-01-20T09:44:11.817Z,98.71
2019-01-20T09:45:11.789Z,98.05
2019-01-20T09:46:11.754Z,98.14
2019-01-20T09:47:11.730Z,97.39
2019-01-20T09:48:11.695Z,98.24
2019-01-20T09:49:11.661Z,97.77
2019-01-20T09:50:11.641Z,97.58
2019-01-20T09:51:11.600Z,97.96
2019-01-20T09:52:11.579Z,98.61
2019-01-20T09:53:11.545Z,98.66
2019-01-20T09:54:11.518Z,98.00
2019-01-20T09:55:11.487Z,98.00
2019-01-20T09:56:11.454Z,97.72
2019-01-20T09:57:11.448Z,97.34
2019-01-20T09:58:11.388Z,97.44
2019-01-20T09:59:11.364Z,96.59
2019-01-20T10:00:11.335Z,96.68
2019-01-20T10:01:11.306Z,96.49
2019-01-20T10:02:11.275Z,97.15
2019-01-20T10:03:16.209Z,96.68
2019-01-20T10:04:11.220Z,96.11
2019-01-20T10:05:11.177Z,95.54
2019-01-20T10:06:11.155Z,94.79
2019-01-20T10:07:11.123Z,94.98
2019-01-20T10:08:11.093Z,94.32
2019-01-20T10:09:11.103Z,93.75
2019-01-20T10:10:11.025Z,93.18
2019-01-20T10:11:10.997Z,92.99
2019-01-20T10:12:10.973Z,92.80
2019-01-20T10:13:10.950Z,92.61
2019-01-20T10:14:10.911Z,92.99
2019-01-20T10:15:10.892Z,92.90
2019-01-20T10:16:10.850Z,92.94
2019-01-20T10:17:10.825Z,92.00
2019-01-20T10:18:10.795Z,90.25
2019-01-20T10:19:10.772Z,86.79
2019-01-20T10:20:10.728Z,84.00
2019-01-20T10:21:10.698Z,80.91
2019-01-20T10:22:10.693Z,78.54
2019-01-20T10:23:10.639Z,78.13
2019-01-20T10:24:10.610Z,77.69
2019-01-20T10:25:15.065Z,77.22
2019-01-20T10:26:10.552Z,76.84
2019-01-20T10:27:10.523Z,76.12
2019-01-20T10:28:10.495Z,75.07
2019-01-20T10:29:10.487Z,74.03
2019-01-20T10:30:10.440Z,73.88
2019-01-20T10:31:10.420Z,72.36
2019-01-20T10:32:10.386Z,70.40
2019-01-20T10:33:10.358Z,69.55
2019-01-20T10:34:10.351Z,68.04
2019-01-20T10:35:10.302Z,68.04
2019-01-20T10:36:10.275Z,68.32
2019-01-20T10:37:10.249Z,67.50
2019-01-20T10:38:10.245Z,66.55
2019-01-20T10:39:10.197Z,65.88
2019-01-20T10:40:10.172Z,65.50
2019-01-20T10:41:10.154Z,64.33
2019-01-20T10:42:10.124Z,64.30
2019-01-20T10:43:10.114Z,65.91
2019-01-20T10:44:10.070Z,67.11
2019-01-20T10:45:10.042Z,69.20
2019-01-20T10:46:10.010Z,70.15
2019-01-20T10:47:09.981Z,69.80
2019-01-20T10:48:09.954Z,69.74
2019-01-20T10:49:09.928Z,69.46
2019-01-20T10:50:09.902Z,68.13
2019-01-20T10:51:09.880Z,67.69
2019-01-20T10:52:09.850Z,66.64
2019-01-20T10:53:09.824Z,65.35
2019-01-20T10:54:09.798Z,64.59
2019-01-20T10:55:09.778Z,63.64
2019-01-20T10:56:09.745Z,63.01
2019-01-20T10:57:09.722Z,61.87
2019-01-20T10:58:09.693Z,60.44
2019-01-20T10:59:09.668Z,59.87
2019-01-20T11:00:09.642Z,59.20
2019-01-20T11:01:09.620Z,58.92
2019-01-20T11:02:09.599Z,59.30
2019-01-20T11:03:09.568Z,59.58
2019-01-20T11:04:09.539Z,58.25
2019-01-20T11:05:09.535Z,58.44
2019-01-20T11:06:09.486Z,58.37
2019-01-20T11:07:09.468Z,58.47
2019-01-20T11:08:09.437Z,56.88
2019-01-20T11:09:09.426Z,56.70
2019-01-20T11:10:09.383Z,55.36
2019-01-20T11:11:09.361Z,54.89
2019-01-20T11:12:09.332Z,54.89
2019-01-20T11:13:09.313Z,54.69
2019-01-20T11:14:09.821Z,54.48
2019-01-20T11:15:09.260Z,55.33
2019-01-20T11:16:09.228Z,55.90
2019-01-20T11:17:09.201Z,56.38
2019-01-20T11:18:09.175Z,56.57
2019-01-20T11:19:09.163Z,56.29
2019-01-20T11:20:09.127Z,55.81
2019-01-20T11:21:09.108Z,55.59
2019-01-20T11:22:09.076Z,56.83
2019-01-20T11:23:09.045Z,56.85
2019-01-20T11:24:09.022Z,55.88
2019-01-20T11:25:08.995Z,55.81
2019-01-20T11:26:08.977Z,55.78
2019-01-20T11:27:08.957Z,55.85
2019-01-20T11:28:08.942Z,57.56
2019-01-20T11:29:08.896Z,58.06
2019-01-20T11:30:08.864Z,57.30
2019-01-20T11:31:08.843Z,55.69
2019-01-20T11:32:08.820Z,55.37
2019-01-20T11:33:08.791Z,55.78
2019-01-20T11:34:08.768Z,55.78
2019-01-20T11:35:08.736Z,55.05
2019-01-20T11:36:08.714Z,54.96
2019-01-20T11:37:08.685Z,54.29
2019-01-20T11:38:08.659Z,54.69
2019-01-20T11:39:08.637Z,53.17
2019-01-20T11:40:08.613Z,52.89
2019-01-20T11:41:08.581Z,52.06
2019-01-20T11:42:08.559Z,50.60
2019-01-20T11:43:08.536Z,51.18
2019-01-20T11:44:08.506Z,51.15
2019-01-20T11:45:08.476Z,51.72
2019-01-20T11:46:08.464Z,51.82
2019-01-20T11:47:08.426Z,51.56
2019-01-20T11:48:08.401Z,50.99
2019-01-20T11:49:08.375Z,50.37
2019-01-20T11:50:08.347Z,51.79
2019-01-20T11:51:08.333Z,52.91
2019-01-20T11:52:08.312Z,53.78
2019-01-20T11:53:08.268Z,53.95
2019-01-20T11:54:08.265Z,53.59
2019-01-20T11:55:08.219Z,53.97
2019-01-20T11:56:08.190Z,53.69
2019-01-20T11:57:08.171Z,53.59
2019-01-20T11:58:08.138Z,53.69
2019-01-20T11:59:08.111Z,53.59
2019-01-20T12:00:08.099Z,53.66
2019-01-20T12:01:08.072Z,54.07
2019-01-20T12:02:08.050Z,53.53
2019-01-20T12:03:08.021Z,53.15
2019-01-20T12:04:07.986Z,52.96
2019-01-20T12:05:07.960Z,52.41
2019-01-20T12:06:07.930Z,51.93
2019-01-20T12:07:07.911Z,51.18
2019-01-20T12:08:07.885Z,50.99
2019-01-20T12:09:07.860Z,50.96
2019-01-20T12:10:07.825Z,51.18
2019-01-20T12:11:07.820Z,50.23
2019-01-20T12:12:07.773Z,50.39
2019-01-20T12:13:07.747Z,50.20
2019-01-20T12:14:07.728Z,50.39
2019-01-20T12:15:07.696Z,50.39
2019-01-20T12:16:07.670Z,50.48
2019-01-20T12:17:07.642Z,51.34
2019-01-20T12:18:07.631Z,50.68
2019-01-20T12:19:07.596Z,50.32
2019-01-20T12:20:07.564Z,49.75
2019-01-20T12:21:07.545Z,48.71
2019-01-20T12:22:07.511Z,48.30
2019-01-20T12:23:07.491Z,49.13
2019-01-20T12:24:07.465Z,50.08
2019-01-20T12:25:07.450Z,50.27
2019-01-20T12:26:07.459Z,50.93
2019-01-20T12:27:07.430Z,51.45
2019-01-20T12:28:07.370Z,52.02
2019-01-20T12:29:07.338Z,52.91
2019-01-20T12:30:07.304Z,52.24
2019-01-20T12:31:07.278Z,52.69
2019-01-20T12:32:07.257Z,53.47
2019-01-20T12:33:07.227Z,53.19
2019-01-20T12:34:07.200Z,52.87
2019-01-20T12:35:07.172Z,53.45
2019-01-20T12:36:07.149Z,53.95
2019-01-20T12:37:07.131Z,53.76
2019-01-20T12:38:07.094Z,53.26
2019-01-20T12:39:07.087Z,52.69
2019-01-20T12:40:07.047Z,53.64
2019-01-20T12:41:07.031Z,53.16
2019-01-20T12:42:07.002Z,53.35
2019-01-20T12:43:06.962Z,52.78
2019-01-20T12:44:06.945Z,53.42
2019-01-20T12:45:06.917Z,53.99
2019-01-20T12:46:06.889Z,54.66
2019-01-20T12:47:06.874Z,55.51
2019-01-20T12:48:06.831Z,55.19
2019-01-20T12:49:06.817Z,55.86
2019-01-20T12:50:06.776Z,57.25
2019-01-20T12:51:06.857Z,57.64
2019-01-20T12:52:06.724Z,58.23